Weather at Kom Awshim Airport

Public forecast

Using degrees Celsius for public forecast. Weather courtesy of forecast.io.

Closest aviation weather report (METAR) to Kom Awshim Airport

Closest report is Cairo International Airport, 43.2 nm (80.1 km) NE. Retrieved 2021/01/20 15:00 UTC (50 seconds ago):

HECA 201500Z 33012KT 9999 SCT025 BKN030 15/04 Q1026 NOSIG

Closest aviation forecast (TAF) to Kom Awshim Airport

Closest forecast is Cairo International Airport, 43.2 nm (80.1 km) NE. Retrieved 2021/01/20 12:40 UTC (2 hours ago):

TAF HECA 201100Z 2012/2118 31008G18KT 9999 SCT025 SCT070 PROB40 2022/2108 VRB02KT 4000 BR